Brookneal/Campbell County Airport

K0V4

Gladys, US

Airport Type
small airport

Climate Statistics

Average Temperature
20.8°C
Last 48 hours
Average Wind Speed
10.2 kt
Last 48 hours
Average Visibility
10 km
Last 48 hours
Average Pressure
3026 hPa
Last 48 hours

Note: Averages calculated from last 48 hours of METAR observations (50 records).

Historical METAR Observations

Time Code Weather Temp Visibility Ceiling Wind METAR/SPECI
11:15 V ☀️ 18°C 10 SM - 180° 11 kt METAR K0V4 131115Z AUTO 18011G17KT 10SM CLR 18/12 A3027 RMK AO1
10:55 V ☀️ 17°C 10 SM - 190° 11 kt METAR K0V4 131055Z AUTO 19011KT 10SM CLR 17/12 A3027 RMK AO1
10:35 V ☀️ 17°C 10 SM - 180° 12 kt METAR K0V4 131035Z AUTO 18012G16KT 10SM CLR 17/13 A3025 RMK AO1
10:15 V ☀️ 17°C 10 SM - 180° 12 kt METAR K0V4 131015Z AUTO 18012KT 10SM CLR 17/13 A3025 RMK AO1
09:55 V ☀️ 17°C 10 SM - 180° 12 kt METAR K0V4 130955Z AUTO 18012KT 10SM CLR 17/13 A3025 RMK AO1
09:35 V ☀️ 18°C 10 SM - 170° 11 kt METAR K0V4 130935Z AUTO 17011KT 10SM CLR 18/13 A3024 RMK AO1
09:15 V ☀️ 18°C 10 SM - 170° 11 kt METAR K0V4 130915Z AUTO 17011KT 10SM CLR 18/13 A3024 RMK AO1
08:55 V ☀️ 18°C 10 SM - 180° 11 kt METAR K0V4 130855Z AUTO 18011KT 10SM CLR 18/13 A3024 RMK AO1
08:35 V ☀️ 18°C 10 SM - 170° 12 kt METAR K0V4 130835Z AUTO 17012KT 10SM CLR 18/13 A3023 RMK AO1
08:15 V ☀️ 18°C 10 SM - 180° 13 kt METAR K0V4 130815Z AUTO 18013KT 10SM CLR 18/13 A3023 RMK AO1
07:55 V ☀️ 19°C 10 SM - 180° 11 kt METAR K0V4 130755Z AUTO 18011G18KT 10SM CLR 19/13 A3023 RMK AO1
07:35 V ☀️ 19°C 10 SM - 170° 13 kt METAR K0V4 130735Z AUTO 17013KT 10SM CLR 19/13 A3023 RMK AO1
07:15 V ☀️ 20°C 10 SM - 180° 14 kt METAR K0V4 130715Z AUTO 18014G19KT 10SM CLR 20/13 A3023 RMK AO1
06:55 V ☀️ 20°C 10 SM - 180° 13 kt METAR K0V4 130655Z AUTO 18013G20KT 10SM CLR 20/13 A3023 RMK AO1
06:35 V ☀️ 20°C 10 SM - 180° 13 kt METAR K0V4 130635Z AUTO 18013G18KT 10SM CLR 20/13 A3024 RMK AO1
06:15 V ☀️ 20°C 10 SM - 180° 15 kt METAR K0V4 130615Z AUTO 18015G19KT 10SM CLR 20/13 A3025 RMK AO1
05:55 V ☀️ 21°C 10 SM - 180° 12 kt METAR K0V4 130555Z AUTO 18012G19KT 10SM CLR 21/13 A3025 RMK AO1
05:35 V ☀️ 21°C 10 SM - 180° 12 kt METAR K0V4 130535Z AUTO 18012G20KT 10SM CLR 21/13 A3025 RMK AO1
05:15 V ☀️ 21°C 10 SM - 170° 15 kt METAR K0V4 130515Z AUTO 17015G20KT 10SM CLR 21/13 A3025 RMK AO1
04:55 V ☀️ 21°C 10 SM - 170° 15 kt METAR K0V4 130455Z AUTO 17015G20KT 10SM CLR 21/13 A3025 RMK AO1
04:35 V ☀️ 20°C 10 SM - 170° 11 kt METAR K0V4 130435Z AUTO 17011KT 10SM CLR 20/14 A3025 RMK AO1
04:15 V ☀️ 20°C 10 SM - 160° 12 kt METAR K0V4 130415Z AUTO 16012G16KT 10SM CLR 20/14 A3025 RMK AO1
03:55 V ☀️ 21°C 10 SM - 170° 11 kt METAR K0V4 130355Z AUTO 17011G16KT 10SM CLR 21/14 A3025 RMK AO1
03:35 V ☀️ 21°C 10 SM - 170° 12 kt METAR K0V4 130335Z AUTO 17012G17KT 10SM CLR 21/14 A3025 RMK AO1
03:15 V ☀️ 21°C 10 SM - 160° 12 kt METAR K0V4 130315Z AUTO 16012G17KT 10SM CLR 21/14 A3025 RMK AO1
02:55 V ☀️ 20°C 10 SM - 160° 12 kt METAR K0V4 130255Z AUTO 16012KT 10SM CLR 20/13 A3025 RMK AO1
02:35 V ☀️ 16°C 10 SM - 170° 8 kt METAR K0V4 130235Z AUTO 17008KT 10SM CLR 16/13 A3026 RMK AO1
02:15 V ☀️ 16°C 10 SM - 0° 0 kt METAR K0V4 130215Z AUTO 00000KT 10SM CLR 16/13 A3026 RMK AO1
01:55 V ☀️ 17°C 10 SM - 150° 6 kt METAR K0V4 130155Z AUTO 15006KT 10SM CLR 17/13 A3026 RMK AO1
01:35 V ☀️ 18°C 10 SM - 150° 6 kt METAR K0V4 130135Z AUTO 15006KT 10SM CLR 18/13 A3026 RMK AO1
01:15 V ☀️ 18°C 10 SM - 0° 0 kt METAR K0V4 130115Z AUTO 00000KT 10SM CLR 18/13 A3025 RMK AO1
00:55 V ☀️ 18°C 10 SM - 80° 5 kt METAR K0V4 130055Z AUTO 08005KT 10SM CLR 18/13 A3025 RMK AO1
00:35 V ☀️ 19°C 10 SM - 0° 0 kt METAR K0V4 130035Z AUTO 00000KT 10SM CLR 19/12 A3025 RMK AO1
00:15 V ☀️ 22°C 10 SM - 0° 0 kt METAR K0V4 130015Z AUTO 00000KT 10SM CLR 22/12 A3025 RMK AO1
23:55 V ☀️ 22°C 10 SM - 140° 4 kt METAR K0V4 122355Z AUTO 14004KT 10SM CLR 22/12 A3025 RMK AO1
23:35 V ☀️ 23°C 10 SM - 150° 7 kt METAR K0V4 122335Z AUTO 15007KT 10SM CLR 23/12 A3026 RMK AO1
23:15 V ☀️ 24°C 10 SM - 160° 11 kt METAR K0V4 122315Z AUTO 16011KT 10SM CLR 24/12 A3026 RMK AO1
22:55 V ☀️ 25°C 10 SM - 160° 12 kt METAR K0V4 122255Z AUTO 16012KT 10SM CLR 25/12 A3027 RMK AO1
22:35 V ☀️ 26°C 10 SM - 170° 12 kt METAR K0V4 122235Z AUTO 17012KT 10SM CLR 26/12 A3027 RMK AO1
22:15 V ☀️ 26°C 10 SM - 160° 12 kt METAR K0V4 122215Z AUTO 16012G17KT 10SM CLR 26/13 A3027 RMK AO1
21:55 V ☀️ 26°C 10 SM - 160° 11 kt METAR K0V4 122155Z AUTO 16011G17KT 10SM CLR 26/12 A3027 RMK AO1
21:35 V ☀️ 26°C 10 SM - 180° 12 kt METAR K0V4 122135Z AUTO 18012KT 10SM CLR 26/12 A3028 RMK AO1
21:15 V ☀️ 25°C 10 SM - 170° 11 kt METAR K0V4 122115Z AUTO 17011G15KT 10SM CLR 25/12 A3028 RMK AO1
20:55 V ☀️ 25°C 10 SM - 180° 12 kt METAR K0V4 122055Z AUTO 18012KT 10SM CLR 25/12 A3029 RMK AO1
20:35 V ☀️ 25°C 10 SM - 160° 13 kt METAR K0V4 122035Z AUTO 16013G18KT 10SM CLR 25/12 A3029 RMK AO1
20:15 V ☀️ 25°C 10 SM - 180° 14 kt METAR K0V4 122015Z AUTO 18014G18KT 10SM CLR 25/12 A3030 RMK AO1
19:55 V ☀️ 25°C 10 SM - 150° 10 kt METAR K0V4 121955Z AUTO 15010G17KT 110V170 10SM CLR 25/11 A3031 RMK AO1
19:35 V ☀️ 24°C 10 SM - 160° 13 kt METAR K0V4 121935Z AUTO 16013KT 10SM CLR 24/12 A3032 RMK AO1
19:15 V ☀️ 24°C 10 SM - 160° 8 kt METAR K0V4 121915Z AUTO 16008G17KT 10SM CLR 24/11 A3033 RMK AO1
18:55 V ☀️ 23°C 10 SM - 140° 5 kt METAR K0V4 121855Z AUTO 14005G15KT 10SM CLR 23/11 A3034 RMK AO1